This is the latest recevied weather packets stored in our database for station/object W4MLN-1. If no packets are shown the sender has not sent any weather packets the latest 1 day(s).
| Time | Temp. | Humidity | Pressure | Rain* | Wind** | Luminosity | Snow |
|---|---|---|---|---|---|---|---|
| 1778093828 | 20.56° C | 71% | 1012.4 hPa | 0 mm | - | 667 W/m² | - |
| 1778089927 | 18.33° C | 79% | 1012.6 hPa | 0 mm | - | 441 W/m² | - |
| 1778089327 | 17.78° C | 79% | 1012.7 hPa | 0 mm | - | 578 W/m² | - |
| 1778088724 | 17.78° C | 80% | 1012.5 hPa | 0 mm | - | 507 W/m² | - |
| 1778088121 | 17.78° C | 84% | 1012.7 hPa | 0.25 mm | - | 485 W/m² | - |
| 1778087521 | 17.78° C | 85% | 1013 hPa | 0.25 mm | - | 374 W/m² | - |
| 1778086921 | 17.22° C | 87% | 1013.4 hPa | 0.25 mm | - | 345 W/m² | - |
| 1778086022 | 17.22° C | 88% | 1013.8 hPa | 0.25 mm | - | 318 W/m² | - |
| 1778085422 | 17.78° C | 87% | 1014.3 hPa | 0.25 mm | - | 250 W/m² | - |
| 1778083616 | 17.78° C | 84% | 1014.3 hPa | 0 mm | - | 245 W/m² | - |
| 1778081816 | 17.22° C | 87% | 1013.5 hPa | 0 mm | - | 224 W/m² | - |
| 1778081516 | 16.67° C | 87% | 1013.4 hPa | 0 mm | - | 343 W/m² | - |
| 1778080916 | 16.67° C | 88% | 1013.3 hPa | 0 mm | - | 393 W/m² | - |
| 1778080617 | 16.11° C | 89% | 1013.3 hPa | 0 mm | - | 346 W/m² | - |
| 1778079702 | 15.56° C | 89% | 1013.3 hPa | 0 mm | - | 387 W/m² | - |
| 1778078787 | 15.56° C | 91% | 1013.3 hPa | 0 mm | - | 142 W/m² | - |
| 1778077286 | 14.44° C | 93% | 1013.3 hPa | 0.51 mm | - | 272 W/m² | - |
| 1778075458 | 13.89° C | 94% | 1013.3 hPa | 0.51 mm | - | 129 W/m² | - |
| 1778074558 | 13.89° C | 92% | 1013.5 hPa | 0.51 mm | - | 111 W/m² | - |
| 1778073658 | 13.89° C | 88% | 1013.1 hPa | 0.25 mm | - | 81 W/m² | - |
| 1778073359 | 13.89° C | 89% | 1012.8 hPa | 0.25 mm | - | 91 W/m² | - |
| 1778072744 | 13.89° C | 88% | 1012.8 hPa | 0.25 mm | - | 155 W/m² | - |
| 1778072144 | 13.89° C | 89% | 1013 hPa | 0.25 mm | - | 80 W/m² | - |
| 1778071844 | 13.89° C | 89% | 1012.8 hPa | 0.25 mm | - | 58 W/m² | - |
| 1778071244 | 13.89° C | 89% | 1012.7 hPa | 0 mm | - | 117 W/m² | - |
* Rain latest hour (hover to see other rain measurements)
** Current wind speed in m/s (hover to see current wind gust speed)